Time;durP1;ratioP1;P1;durP2;ratioP2;P2;SDS_P1;SDS_P2;PMS_P1;PMS_P2;Temp;Humidity;BMP_temperature;BMP_pressure;BME280_temperature;BME280_humidity;BME280_pressure;Samples;Min_cycle;Max_cycle;Signal;HPM_P1;HPM_P2
2022/12/20 00:01:29;;;;;;;9.82;7.60;;;6.90;99.90;;;;;;5025135;28;20195;-64
2022/12/20 00:03:57;;;;;;;8.80;7.93;;;7.10;99.90;;;;;;5025776;28;20186;-64
2022/12/20 00:06:24;;;;;;;8.15;6.97;;;6.80;99.90;;;;;;5030853;28;20695;-64
2022/12/20 00:08:58;;;;;;;10.95;8.18;;;6.90;99.90;;;;;;5023186;28;20209;-64
2022/12/20 00:11:25;;;;;;;9.32;7.85;;;6.80;99.90;;;;;;5031158;28;20204;-64
2022/12/20 00:13:51;;;;;;;8.30;7.40;;;6.70;99.90;;;;;;5030300;28;20276;-64
2022/12/20 00:16:22;;;;;;;8.77;7.53;;;6.70;99.90;;;;;;5031554;28;20421;-64
2022/12/20 00:18:53;;;;;;;9.10;7.95;;;6.70;99.90;;;;;;5018947;28;20193;-64
2022/12/20 00:21:19;;;;;;;8.07;7.28;;;6.80;99.90;;;;;;5030966;28;20190;-64
2022/12/20 00:23:44;;;;;;;8.75;7.80;;;7.00;99.90;;;;;;5028921;28;20182;-64
2022/12/20 00:26:14;;;;;;;8.23;7.10;;;6.80;99.90;;;;;;5031061;28;20214;-64
2022/12/20 00:28:41;;;;;;;8.38;7.53;;;7.00;99.90;;;;;;5030643;28;20703;-64
2022/12/20 00:31:09;;;;;;;8.20;6.80;;;7.00;99.90;;;;;;5029526;28;20201;-64
2022/12/20 00:33:36;;;;;;;9.55;7.25;;;7.10;99.90;;;;;;5026505;28;20194;-64
2022/12/20 00:36:03;;;;;;;8.65;7.68;;;6.80;99.90;;;;;;5029088;28;20220;-64
2022/12/20 00:38:28;;;;;;;9.43;7.85;;;6.90;99.90;;;;;;5029951;28;20221;-64
2022/12/20 00:41:03;;;;;;;11.20;8.70;;;6.70;99.90;;;;;;5031388;28;20217;-64
2022/12/20 00:43:29;;;;;;;8.82;7.70;;;6.70;99.90;;;;;;5030370;28;20554;-64
2022/12/20 00:45:55;;;;;;;8.40;7.40;;;6.60;99.90;;;;;;5030671;28;20216;-64
2022/12/20 00:48:21;;;;;;;10.03;7.20;;;6.70;99.90;;;;;;5023199;28;20190;-64
2022/12/20 00:50:46;;;;;;;9.53;7.80;;;6.60;99.90;;;;;;5029324;28;20182;-64
2022/12/20 00:53:12;;;;;;;8.77;7.77;;;6.60;99.90;;;;;;5024048;28;20797;-64
2022/12/20 00:55:41;;;;;;;9.50;7.87;;;6.60;99.90;;;;;;5028364;28;20731;-64
2022/12/20 00:58:07;;;;;;;9.75;8.02;;;7.00;99.90;;;;;;5039216;28;20193;-66
2022/12/20 01:00:33;;;;;;;9.83;8.40;;;6.50;99.90;;;;;;5021497;28;20198;-66
2022/12/20 01:02:59;;;;;;;12.00;10.70;;;6.80;99.90;;;;;;5023286;28;20440;-65
2022/12/20 01:05:24;;;;;;;13.83;11.00;;;6.50;99.90;;;;;;5030286;28;20221;-66
2022/12/20 01:07:50;;;;;;;16.03;11.97;;;6.60;99.90;;;;;;5030922;28;20554;-67
2022/12/20 01:10:16;;;;;;;11.03;9.80;;;6.70;99.90;;;;;;5032295;28;20198;-66
2022/12/20 01:12:42;;;;;;;13.82;12.10;;;6.50;99.90;;;;;;5041948;28;20193;-66
2022/12/20 01:15:08;;;;;;;16.90;13.47;;;6.70;99.90;;;;;;5040238;28;20258;-66
2022/12/20 01:17:34;;;;;;;13.00;11.70;;;6.60;99.90;;;;;;5040201;28;20865;-66
2022/12/20 01:20:00;;;;;;;12.57;11.17;;;6.60;99.90;;;;;;5025248;28;20182;-66
2022/12/20 01:22:25;;;;;;;10.70;9.60;;;6.70;99.90;;;;;;5030508;28;20182;-64
2022/12/20 01:24:51;;;;;;;11.37;9.83;;;6.40;99.90;;;;;;5029731;28;20187;-65
2022/12/20 01:27:16;;;;;;;12.80;11.20;;;6.50;99.90;;;;;;5028023;28;20198;-66
2022/12/20 01:29:42;;;;;;;12.93;10.33;;;6.60;99.90;;;;;;5029791;28;20244;-66
2022/12/20 01:32:07;;;;;;;12.03;10.30;;;6.40;99.90;;;;;;5024759;28;20198;-66
2022/12/20 01:34:33;;;;;;;12.73;11.30;;;6.50;99.90;;;;;;5030144;28;20221;-66
2022/12/20 01:36:59;;;;;;;12.73;10.77;;;6.60;99.90;;;;;;5028985;28;20213;-66
2022/12/20 01:39:25;;;;;;;18.08;12.05;;;6.30;99.90;;;;;;5024129;28;20670;-66
2022/12/20 01:41:50;;;;;;;15.73;12.93;;;6.60;99.90;;;;;;5029195;28;20190;-66
2022/12/20 01:44:16;;;;;;;15.33;11.60;;;6.40;99.90;;;;;;5029502;28;20269;-66
2022/12/20 01:46:42;;;;;;;14.00;10.73;;;6.50;99.90;;;;;;5028970;28;20611;-66
2022/12/20 01:49:17;;;;;;;13.48;11.85;;;6.40;99.90;;;;;;5021091;28;20194;-67
2022/12/20 01:51:46;;;;;;;15.65;12.32;;;6.40;99.90;;;;;;5029834;28;20189;-66
2022/12/20 01:54:20;;;;;;;13.13;11.40;;;6.20;99.90;;;;;;5019079;28;20253;-66
2022/12/20 01:56:56;;;;;;;15.25;12.05;;;6.20;99.90;;;;;;5021147;28;20822;-66
2022/12/20 01:59:21;;;;;;;12.93;10.77;;;6.20;99.90;;;;;;5031996;28;20186;-66
2022/12/20 02:01:47;;;;;;;12.13;10.87;;;6.20;99.90;;;;;;5029320;28;20182;-65
2022/12/20 02:04:13;;;;;;;14.67;11.93;;;6.30;99.90;;;;;;5030032;28;20228;-66
2022/12/20 02:06:38;;;;;;;12.67;10.90;;;6.30;99.90;;;;;;5033195;28;20222;-65
2022/12/20 02:09:06;;;;;;;12.33;11.00;;;6.40;99.90;;;;;;5026058;28;20190;-66
2022/12/20 02:11:53;;;;;;;15.73;11.15;;;6.20;99.90;;;;;;5033457;28;20197;-66
2022/12/20 02:14:42;;;;;;;13.93;12.30;;;6.30;99.90;;;;;;5040581;28;20189;-64
2022/12/20 02:17:32;;;;;;;16.48;12.00;;;6.40;99.90;;;;;;5030634;28;20225;-64
2022/12/20 02:20:20;;;;;;;13.73;11.32;;;6.50;99.90;;;;;;5030254;28;20178;-64
2022/12/20 02:23:15;;;;;;;13.35;11.88;;;6.40;99.90;;;;;;5032626;28;20186;-64
2022/12/20 02:25:57;;;;;;;19.15;11.63;;;6.40;99.90;;;;;;5031655;28;20221;-62
2022/12/20 02:28:54;;;;;;;12.07;10.88;;;6.40;99.90;;;;;;5032385;28;20205;-64
2022/12/20 02:31:36;;;;;;;13.68;11.60;;;6.60;99.90;;;;;;5030834;28;20202;-64
2022/12/20 02:34:02;;;;;;;16.38;12.98;;;6.20;99.90;;;;;;5030053;28;20623;-64
2022/12/20 02:36:28;;;;;;;12.52;11.38;;;6.30;99.90;;;;;;5030695;28;20226;-64
2022/12/20 02:38:53;;;;;;;14.10;12.43;;;6.30;99.90;;;;;;5028606;28;20205;-64
2022/12/20 02:41:27;;;;;;;15.60;13.30;;;6.40;99.90;;;;;;5032215;28;20174;-64
2022/12/20 02:46:47;;;;;;;15.48;13.75;;;6.10;99.90;;;;;;5032438;28;20221;-63
2022/12/20 02:49:18;;;;;;;14.25;11.85;;;6.10;99.90;;;;;;5032890;28;20296;-64
2022/12/20 02:51:48;;;;;;;13.68;12.27;;;6.20;99.90;;;;;;5025852;28;20194;-64
2022/12/20 02:54:14;;;;;;;13.27;12.00;;;6.10;99.90;;;;;;5028135;28;20272;-64
2022/12/20 02:56:52;;;;;;;17.67;13.25;;;6.20;99.90;;;;;;5032772;28;20225;-64
2022/12/20 02:59:22;;;;;;;15.25;11.85;;;6.30;99.90;;;;;;5030609;28;20170;-64
2022/12/20 03:01:51;;;;;;;16.15;12.82;;;6.10;99.90;;;;;;5029609;28;20263;-64
2022/12/20 03:04:20;;;;;;;17.17;13.15;;;6.20;99.90;;;;;;5032391;28;20183;-64
2022/12/20 03:07:15;;;;;;;14.27;12.07;;;6.30;99.90;;;;;;5031954;28;20230;-64
2022/12/20 03:09:42;;;;;;;14.13;11.80;;;6.50;99.90;;;;;;5022943;28;20581;-62
2022/12/20 03:12:10;;;;;;;13.30;11.90;;;6.30;99.90;;;;;;5031272;28;20190;-63
2022/12/20 03:14:36;;;;;;;11.90;10.60;;;6.10;99.90;;;;;;5038647;28;20182;-64
2022/12/20 03:17:03;;;;;;;12.02;10.82;;;6.10;99.90;;;;;;5031468;28;20221;-64
2022/12/20 03:19:29;;;;;;;14.35;12.23;;;6.40;99.90;;;;;;5025678;28;20178;-64
2022/12/20 03:21:54;;;;;;;12.77;11.47;;;6.50;99.90;;;;;;5022951;28;20208;-64
2022/12/20 03:24:20;;;;;;;14.93;11.47;;;6.40;99.90;;;;;;5030494;28;20185;-62
2022/12/20 03:26:46;;;;;;;12.83;10.70;;;6.60;99.90;;;;;;5027813;28;20213;-63
2022/12/20 03:29:11;;;;;;;11.70;10.50;;;6.50;99.90;;;;;;5031781;28;20221;-64
2022/12/20 03:31:37;;;;;;;11.73;10.53;;;6.70;99.90;;;;;;5030662;28;20190;-64
2022/12/20 03:34:03;;;;;;;13.77;10.50;;;6.60;99.90;;;;;;5031509;28;20334;-64
2022/12/20 03:36:29;;;;;;;13.53;10.30;;;6.70;99.90;;;;;;5031093;28;20523;-63
2022/12/20 03:38:55;;;;;;;12.57;9.48;;;6.20;99.90;;;;;;5027101;28;20559;-64
2022/12/20 03:41:22;;;;;;;12.02;10.32;;;6.30;99.90;;;;;;5020392;28;20202;-64
2022/12/20 03:43:48;;;;;;;12.05;9.50;;;6.60;99.90;;;;;;5024623;28;20674;-64
2022/12/20 03:46:14;;;;;;;12.05;9.30;;;6.30;99.90;;;;;;5032495;28;20295;-64
2022/12/20 03:48:40;;;;;;;13.77;9.65;;;6.50;99.90;;;;;;5027884;28;20186;-64
2022/12/20 03:51:06;;;;;;;12.37;9.97;;;6.30;99.90;;;;;;5032162;28;20709;-64
2022/12/20 03:53:32;;;;;;;11.53;10.33;;;6.50;99.90;;;;;;5026627;28;20205;-64
2022/12/20 03:55:57;;;;;;;10.70;8.73;;;6.60;99.90;;;;;;5031248;28;20296;-64
2022/12/20 03:58:23;;;;;;;9.33;8.40;;;6.60;99.90;;;;;;5026664;28;21025;-64
2022/12/20 04:00:49;;;;;;;10.90;8.87;;;6.60;99.90;;;;;;5027906;28;20183;-64
2022/12/20 04:03:14;;;;;;;9.23;8.27;;;6.50;99.90;;;;;;5031460;28;20174;-64
2022/12/20 04:05:40;;;;;;;8.93;8.13;;;6.50;99.90;;;;;;5030649;28;20218;-64
2022/12/20 04:08:06;;;;;;;10.38;8.65;;;6.60;99.90;;;;;;5025317;28;20183;-64
2022/12/20 04:11:14;;;;;;;11.70;8.03;;;6.80;99.90;;;;;;5025508;28;20561;-64
2022/12/20 04:13:17;;;;;;;8.95;8.05;;;6.80;99.90;;;;;;5030367;28;20181;-64
2022/12/20 04:15:43;;;;;;;10.30;8.93;;;6.90;99.90;;;;;;5029389;28;20241;-64
2022/12/20 04:18:08;;;;;;;12.07;9.50;;;6.90;99.90;;;;;;5029958;28;20253;-64
2022/12/20 04:20:34;;;;;;;11.70;10.60;;;6.80;99.90;;;;;;5030677;28;20186;-64
2022/12/20 04:23:00;;;;;;;14.83;11.97;;;6.70;99.90;;;;;;5028897;28;20250;-64
2022/12/20 04:25:25;;;;;;;10.73;9.43;;;6.90;99.90;;;;;;5029732;28;20695;-64
2022/12/20 04:27:51;;;;;;;13.90;8.90;;;6.80;99.90;;;;;;5031327;28;20658;-64
2022/12/20 04:30:16;;;;;;;9.70;8.70;;;7.10;99.90;;;;;;5031289;28;20670;-64
2022/12/20 04:32:42;;;;;;;10.30;8.70;;;7.00;99.90;;;;;;5024962;28;20194;-64
2022/12/20 04:35:08;;;;;;;8.87;8.00;;;7.00;99.90;;;;;;5030000;28;20214;-64
2022/12/20 04:37:34;;;;;;;8.20;7.40;;;7.20;99.90;;;;;;5030183;28;20197;-64
2022/12/20 04:39:59;;;;;;;8.20;7.40;;;7.20;99.90;;;;;;5028750;28;20182;-64
2022/12/20 04:42:25;;;;;;;8.27;7.10;;;6.90;99.90;;;;;;5030457;28;20182;-64
2022/12/20 04:44:50;;;;;;;9.10;7.80;;;6.80;99.90;;;;;;5030050;28;20670;-64
2022/12/20 04:47:16;;;;;;;9.10;8.20;;;7.10;99.90;;;;;;5027465;28;20193;-65
2022/12/20 04:49:42;;;;;;;10.13;8.77;;;7.20;99.90;;;;;;5030211;28;20194;-64
2022/12/20 04:54:52;;;;;;;8.52;6.93;;;7.10;99.90;;;;;;5018848;28;20666;-66
2022/12/20 04:57:17;;;;;;;8.40;7.33;;;7.10;99.90;;;;;;5028653;28;20293;-66
2022/12/20 04:59:43;;;;;;;7.37;6.67;;;7.30;99.90;;;;;;5029719;28;20844;-66
2022/12/20 05:02:09;;;;;;;9.20;8.20;;;7.20;99.90;;;;;;5027675;28;20182;-66
2022/12/20 05:04:34;;;;;;;8.27;7.23;;;7.00;99.90;;;;;;5029872;28;20248;-66
2022/12/20 05:07:00;;;;;;;7.80;7.00;;;7.30;99.90;;;;;;5028835;28;20217;-66
2022/12/20 05:09:25;;;;;;;11.20;8.93;;;7.20;99.90;;;;;;5021920;28;20652;-64
2022/12/20 05:11:51;;;;;;;8.10;7.30;;;7.30;99.90;;;;;;5030712;28;20235;-64
2022/12/20 05:14:17;;;;;;;7.50;6.80;;;7.30;99.90;;;;;;5036696;28;20277;-64
2022/12/20 05:16:42;;;;;;;8.17;7.30;;;7.50;99.90;;;;;;5029007;28;20574;-64
2022/12/20 05:19:08;;;;;;;10.27;8.13;;;7.60;99.90;;;;;;5025926;28;20539;-64
2022/12/20 05:27:02;;;;;;;7.75;6.95;;;7.50;99.90;;;;;;5028508;28;20244;-64
2022/12/20 05:29:28;;;;;;;7.60;6.53;;;7.50;99.90;;;;;;5028560;28;20182;-66
2022/12/20 05:31:53;;;;;;;8.00;6.30;;;7.60;99.90;;;;;;5030154;28;20440;-66
2022/12/20 05:34:19;;;;;;;9.73;7.10;;;7.30;99.90;;;;;;5029287;28;20194;-66
2022/12/20 05:36:45;;;;;;;8.73;6.30;;;7.60;99.90;;;;;;5033469;28;20721;-66
2022/12/20 05:39:10;;;;;;;8.30;6.83;;;7.30;99.90;;;;;;5031370;28;21004;-66
2022/12/20 05:41:37;;;;;;;7.90;6.73;;;7.60;99.90;;;;;;5033538;28;20544;-66
2022/12/20 05:44:03;;;;;;;7.47;6.30;;;7.40;99.90;;;;;;5033827;28;20198;-66
2022/12/20 05:46:29;;;;;;;7.20;6.20;;;7.50;99.90;;;;;;5032466;28;20683;-66
2022/12/20 05:48:54;;;;;;;7.37;6.67;;;7.50;99.90;;;;;;5025546;28;20308;-66
2022/12/20 05:51:20;;;;;;;6.50;5.90;;;7.40;99.90;;;;;;5034216;28;20429;-66
2022/12/20 05:53:46;;;;;;;7.20;5.83;;;7.60;99.90;;;;;;5025736;28;20679;-66
2022/12/20 05:56:11;;;;;;;9.43;7.17;;;7.50;99.90;;;;;;5032107;28;20311;-66
2022/12/20 05:58:37;;;;;;;8.57;5.57;;;7.70;99.90;;;;;;5032684;28;20186;-67
2022/12/20 06:01:05;;;;;;;7.23;6.53;;;7.50;99.90;;;;;;5031216;28;20601;-66
2022/12/20 06:03:31;;;;;;;6.85;6.15;;;7.50;99.90;;;;;;5033486;28;20244;-66
2022/12/20 06:05:56;;;;;;;7.67;6.87;;;7.70;99.90;;;;;;5033045;28;20615;-66
2022/12/20 06:08:23;;;;;;;6.50;5.80;;;7.50;99.90;;;;;;5028512;28;20723;-66
2022/12/20 06:10:49;;;;;;;6.93;6.22;;;7.60;99.90;;;;;;5027503;28;20272;-66
2022/12/20 06:13:15;;;;;;;7.43;6.13;;;7.50;99.90;;;;;;5032772;28;20739;-66
2022/12/20 06:15:40;;;;;;;8.75;6.55;;;7.70;99.90;;;;;;5026156;28;20816;-66
2022/12/20 06:18:06;;;;;;;9.67;6.40;;;7.50;99.90;;;;;;5028302;28;20237;-66
2022/12/20 06:20:34;;;;;;;7.30;6.23;;;7.60;99.90;;;;;;5029177;28;20557;-66
2022/12/20 06:22:59;;;;;;;7.13;5.75;;;7.50;99.90;;;;;;5026344;28;20400;-65
2022/12/20 06:25:25;;;;;;;8.23;6.13;;;7.40;99.90;;;;;;5031335;28;20737;-65
2022/12/20 06:27:51;;;;;;;7.00;6.33;;;7.40;99.90;;;;;;5032304;28;20444;-66
2022/12/20 06:30:16;;;;;;;6.80;6.10;;;7.70;99.90;;;;;;5031266;28;20186;-65
2022/12/20 06:32:42;;;;;;;7.97;6.40;;;7.80;99.90;;;;;;5029756;28;20217;-66
2022/12/20 06:35:08;;;;;;;7.10;6.47;;;7.50;99.90;;;;;;5032256;28;20443;-65
2022/12/20 06:37:35;;;;;;;8.20;7.10;;;7.80;99.90;;;;;;5032270;28;20574;-65
2022/12/20 06:40:01;;;;;;;7.95;6.45;;;7.70;99.90;;;;;;5030903;28;20170;-63
2022/12/20 06:42:27;;;;;;;8.07;6.05;;;7.70;99.90;;;;;;5032580;28;20189;-64
2022/12/20 06:44:52;;;;;;;7.97;5.93;;;7.80;99.90;;;;;;5029645;28;20187;-64
2022/12/20 06:47:18;;;;;;;7.33;5.90;;;7.60;99.90;;;;;;5032252;28;20812;-64
2022/12/20 06:49:44;;;;;;;9.77;7.47;;;7.80;99.90;;;;;;5024023;28;20195;-64
2022/12/20 06:52:09;;;;;;;7.73;6.37;;;8.00;99.90;;;;;;5032336;28;20919;-65
2022/12/20 06:54:35;;;;;;;9.47;8.07;;;8.00;99.90;;;;;;5029762;28;20182;-64
2022/12/20 06:57:00;;;;;;;7.83;7.03;;;7.90;99.90;;;;;;5031656;28;20249;-64
2022/12/20 06:59:26;;;;;;;6.83;5.40;;;8.10;99.90;;;;;;5031054;28;20182;-64
2022/12/20 07:01:51;;;;;;;7.40;6.00;;;8.00;99.90;;;;;;5031999;28;20189;-64
2022/12/20 07:04:18;;;;;;;7.70;6.10;;;8.00;99.90;;;;;;5030374;28;20252;-63
2022/12/20 07:06:44;;;;;;;7.85;5.90;;;8.10;99.90;;;;;;5031712;28;20712;-64
2022/12/20 07:09:09;;;;;;;7.43;6.70;;;8.10;99.90;;;;;;5025666;28;20277;-64
2022/12/20 07:11:36;;;;;;;10.07;6.53;;;8.20;99.90;;;;;;5030603;28;20412;-64
2022/12/20 07:14:02;;;;;;;6.82;6.10;;;8.20;99.90;;;;;;5038165;28;20307;-66
2022/12/20 07:16:28;;;;;;;8.40;5.57;;;8.30;99.90;;;;;;5027611;28;20809;-65
2022/12/20 07:18:54;;;;;;;8.30;6.10;;;8.30;99.90;;;;;;5031424;28;20174;-66
2022/12/20 07:21:20;;;;;;;8.75;6.40;;;8.30;99.90;;;;;;5031647;28;20688;-65
2022/12/20 07:23:47;;;;;;;7.45;6.50;;;8.40;99.90;;;;;;5024064;28;20208;-66
2022/12/20 07:26:13;;;;;;;7.50;6.38;;;8.30;99.90;;;;;;5029465;28;20687;-66
2022/12/20 07:28:39;;;;;;;7.28;6.55;;;8.30;99.90;;;;;;5030566;28;20666;-65
2022/12/20 07:31:05;;;;;;;8.73;6.13;;;8.30;99.90;;;;;;5030873;28;20189;-66
2022/12/20 07:33:31;;;;;;;7.43;6.50;;;8.30;99.90;;;;;;5025843;28;20186;-65
2022/12/20 07:36:11;;;;;;;12.45;7.60;;;8.30;99.90;;;;;;5030657;28;20214;-65
2022/12/20 07:38:37;;;;;;;9.60;7.82;;;8.30;99.90;;;;;;5029092;28;20184;-65
2022/12/20 07:41:12;;;;;;;10.05;8.27;;;8.20;99.90;;;;;;5022224;28;20189;-65
2022/12/20 07:43:38;;;;;;;9.57;8.57;;;8.10;99.90;;;;;;5030579;28;20181;-63
2022/12/20 07:46:05;;;;;;;11.70;9.15;;;8.10;99.90;;;;;;5029962;28;20667;-64
2022/12/20 07:48:31;;;;;;;8.95;8.07;;;8.30;99.90;;;;;;5026535;28;20648;-64
2022/12/20 07:51:01;;;;;;;8.63;7.73;;;8.20;99.90;;;;;;5031240;28;20316;-64
2022/12/20 07:53:30;;;;;;;11.70;9.30;;;8.40;99.90;;;;;;5015645;28;20645;-64
2022/12/20 07:55:59;;;;;;;13.00;9.32;;;8.40;99.90;;;;;;5028542;28;20209;-63
2022/12/20 07:58:26;;;;;;;13.02;8.52;;;8.50;99.90;;;;;;5025847;28;20633;-64
2022/12/20 08:00:51;;;;;;;10.80;8.07;;;8.50;99.90;;;;;;5030728;28;20182;-64
2022/12/20 08:03:21;;;;;;;13.23;9.70;;;8.80;99.90;;;;;;5027826;28;20534;-64
2022/12/20 08:05:52;;;;;;;9.68;6.50;;;8.60;99.90;;;;;;5030520;28;20225;-64
2022/12/20 08:08:18;;;;;;;7.80;5.28;;;8.70;99.90;;;;;;5025828;28;20229;-63
2022/12/20 08:10:45;;;;;;;9.15;5.88;;;8.80;99.90;;;;;;5026536;28;20197;-63
2022/12/20 08:13:11;;;;;;;5.85;5.25;;;9.10;99.90;;;;;;5038281;28;20268;-63
2022/12/20 08:15:37;;;;;;;7.55;5.15;;;9.00;99.90;;;;;;5027567;28;20727;-63
2022/12/20 08:18:05;;;;;;;5.37;4.87;;;9.20;99.90;;;;;;5023362;28;20218;-65
2022/12/20 08:20:31;;;;;;;6.78;5.90;;;9.20;99.90;;;;;;5028368;28;20444;-63
2022/12/20 08:22:56;;;;;;;5.70;5.20;;;9.10;99.90;;;;;;5029244;28;20178;-63
2022/12/20 08:25:22;;;;;;;6.83;5.33;;;9.20;99.90;;;;;;5029759;28;20511;-62
2022/12/20 08:27:48;;;;;;;8.60;5.55;;;9.10;99.90;;;;;;5029567;28;20186;-62
2022/12/20 08:30:14;;;;;;;5.83;4.40;;;9.50;99.90;;;;;;5030656;28;20240;-62
2022/12/20 08:32:40;;;;;;;5.35;4.57;;;9.60;99.90;;;;;;5022356;28;20434;-63
2022/12/20 08:35:06;;;;;;;8.83;6.70;;;9.40;99.90;;;;;;5029439;28;20527;-63
2022/12/20 08:37:32;;;;;;;5.60;4.75;;;9.60;99.90;;;;;;5029360;28;20487;-62
2022/12/20 08:39:59;;;;;;;9.35;5.68;;;9.60;99.90;;;;;;5025087;28;20187;-64
2022/12/20 08:42:25;;;;;;;5.38;4.40;;;9.90;99.90;;;;;;5028874;28;20598;-63
2022/12/20 08:44:51;;;;;;;4.50;4.10;;;9.80;99.90;;;;;;5029341;28;20218;-64
2022/12/20 08:47:17;;;;;;;6.00;5.10;;;9.80;99.90;;;;;;5028973;28;20214;-65
2022/12/20 08:49:42;;;;;;;4.97;4.47;;;9.90;99.90;;;;;;5027534;28;20199;-66
2022/12/20 08:52:08;;;;;;;5.90;4.70;;;9.90;99.90;;;;;;5022824;28;20242;-65
2022/12/20 08:54:34;;;;;;;6.00;5.30;;;10.20;99.90;;;;;;5020592;28;20269;-64
2022/12/20 08:56:59;;;;;;;6.97;5.47;;;9.90;99.90;;;;;;5028939;28;20209;-66
2022/12/20 08:59:25;;;;;;;6.30;4.97;;;10.20;99.90;;;;;;5028801;28;20176;-65
2022/12/20 09:01:53;;;;;;;6.13;5.53;;;10.60;99.90;;;;;;5030127;28;20694;-65
2022/12/20 09:04:18;;;;;;;5.97;5.05;;;10.40;99.90;;;;;;5029964;28;20260;-65
2022/12/20 09:06:44;;;;;;;5.43;4.73;;;10.60;99.90;;;;;;5024144;28;20704;-65
2022/12/20 09:09:10;;;;;;;5.00;4.60;;;10.40;99.90;;;;;;5023942;28;20421;-64
2022/12/20 09:11:35;;;;;;;6.47;5.40;;;10.50;99.90;;;;;;5034864;28;20221;-64
2022/12/20 09:14:01;;;;;;;7.10;5.60;;;10.70;99.90;;;;;;5033750;28;20183;-65
2022/12/20 09:16:30;;;;;;;8.50;5.73;;;10.40;99.90;;;;;;5033753;28;20218;-65
2022/12/20 09:18:57;;;;;;;5.50;4.80;;;10.40;99.90;;;;;;5032854;28;20186;-65
2022/12/20 09:21:23;;;;;;;7.68;4.85;;;10.50;99.90;;;;;;5032851;28;20178;-65
2022/12/20 09:23:50;;;;;;;6.40;5.05;;;10.60;99.90;;;;;;5028614;28;20188;-64
2022/12/20 09:26:17;;;;;;;7.00;6.15;;;10.30;99.90;;;;;;5033791;28;20287;-65
2022/12/20 09:28:43;;;;;;;5.93;5.30;;;10.40;99.90;;;;;;5033339;28;20278;-65
2022/12/20 09:31:17;;;;;;;6.80;4.95;;;10.30;99.90;;;;;;5041208;28;20222;-65
2022/12/20 09:33:44;;;;;;;6.15;5.55;;;10.10;99.90;;;;;;5031196;28;20667;-64
2022/12/20 09:36:21;;;;;;;6.30;4.90;;;10.40;99.90;;;;;;5030557;28;20227;-64
2022/12/20 09:38:48;;;;;;;6.75;6.03;;;10.00;99.90;;;;;;5028856;28;20669;-64
2022/12/20 09:41:28;;;;;;;6.97;6.28;;;10.20;99.90;;;;;;5031345;28;20193;-65
2022/12/20 09:43:54;;;;;;;5.45;4.95;;;10.00;99.90;;;;;;5031851;28;20188;-66
2022/12/20 09:46:22;;;;;;;7.38;4.95;;;10.30;99.90;;;;;;5032047;28;20254;-65
2022/12/20 09:48:48;;;;;;;6.05;5.45;;;10.20;99.90;;;;;;5028821;28;20188;-65
2022/12/20 09:51:16;;;;;;;6.43;5.00;;;10.50;99.90;;;;;;5033581;28;20572;-65
2022/12/20 09:54:03;;;;;;;6.45;5.10;;;10.40;99.90;;;;;;5026286;28;20449;-65
2022/12/20 09:57:05;;;;;;;7.13;5.95;;;10.30;99.90;;;;;;5030781;28;20253;-65
2022/12/20 09:59:36;;;;;;;6.03;4.90;;;10.50;99.90;;;;;;5032627;28;20240;-66
2022/12/20 10:02:10;;;;;;;5.65;4.72;;;10.90;99.90;;;;;;5032499;28;20232;-66
2022/12/20 10:04:36;;;;;;;6.05;5.53;;;10.90;99.90;;;;;;5025112;28;20580;-66
2022/12/20 10:07:31;;;;;;;6.40;4.90;;;11.30;99.90;;;;;;5031338;28;20204;-66
2022/12/20 10:10:33;;;;;;;5.30;4.80;;;11.10;99.90;;;;;;5030459;28;20194;-66
2022/12/20 10:13:26;;;;;;;7.47;6.70;;;11.20;99.90;;;;;;5030179;28;20400;-65
2022/12/20 10:15:55;;;;;;;5.90;5.32;;;11.30;99.90;;;;;;5031242;28;20261;-66
2022/12/20 10:18:55;;;;;;;9.77;5.32;;;11.60;99.90;;;;;;5028949;28;20530;-66
2022/12/20 10:21:36;;;;;;;4.90;4.50;;;11.50;99.90;;;;;;5026142;28;20644;-65
2022/12/20 10:24:14;;;;;;;5.10;4.45;;;11.20;99.90;;;;;;5027776;28;20196;-65
2022/12/20 10:26:39;;;;;;;8.95;5.57;;;11.30;99.80;;;;;;5028850;28;20210;-66
2022/12/20 10:29:05;;;;;;;6.70;4.33;;;11.40;99.90;;;;;;5031087;28;20557;-66
2022/12/20 10:31:30;;;;;;;5.97;5.10;;;11.10;99.90;;;;;;5031062;28;20356;-66
2022/12/20 10:33:56;;;;;;;5.23;4.73;;;11.00;99.90;;;;;;5027817;28;20199;-65
2022/12/20 10:36:28;;;;;;;5.07;4.37;;;11.10;99.90;;;;;;5025464;28;20218;-66
2022/12/20 10:38:56;;;;;;;4.97;4.57;;;10.90;99.90;;;;;;5031723;28;20202;-66
2022/12/20 10:41:28;;;;;;;5.13;4.63;;;11.00;99.90;;;;;;5034421;28;20654;-66
2022/12/20 10:44:23;;;;;;;4.65;4.25;;;10.80;99.90;;;;;;5029832;28;20319;-65
2022/12/20 10:46:53;;;;;;;6.40;4.80;;;11.10;99.90;;;;;;5025111;28;20209;-63
2022/12/20 10:49:36;;;;;;;6.68;4.43;;;11.00;99.90;;;;;;5023999;28;20676;-63
2022/12/20 10:52:07;;;;;;;4.68;4.15;;;10.70;99.90;;;;;;5031726;28;20195;-63
2022/12/20 10:54:36;;;;;;;4.70;4.20;;;10.90;99.90;;;;;;5031777;28;20191;-65
2022/12/20 10:57:27;;;;;;;4.63;4.13;;;10.80;99.90;;;;;;5029600;28;20302;-65
2022/12/20 10:59:55;;;;;;;5.00;4.20;;;10.70;99.90;;;;;;5030818;28;20199;-65
2022/12/20 11:02:39;;;;;;;5.55;3.80;;;10.80;99.90;;;;;;5035408;28;20202;-66
2022/12/20 11:05:08;;;;;;;5.53;4.68;;;10.70;99.90;;;;;;5027958;28;20204;-65
2022/12/20 11:07:34;;;;;;;5.68;5.03;;;10.90;99.90;;;;;;5031253;28;20195;-65
2022/12/20 11:10:19;;;;;;;4.72;4.22;;;10.90;99.90;;;;;;5030648;28;20604;-62
2022/12/20 11:12:55;;;;;;;6.30;5.47;;;11.10;99.90;;;;;;5031119;28;20411;-63
2022/12/20 11:15:35;;;;;;;16.70;13.82;;;10.90;99.90;;;;;;5024012;28;20236;-64
2022/12/20 11:18:14;;;;;;;5.93;4.35;;;11.20;99.90;;;;;;5031750;28;20277;-63
2022/12/20 11:20:44;;;;;;;4.97;4.53;;;11.40;99.90;;;;;;5033496;28;20188;-63
2022/12/20 11:23:31;;;;;;;3.97;3.60;;;11.30;99.90;;;;;;5027287;28;20195;-63
2022/12/20 11:26:30;;;;;;;5.13;4.63;;;11.50;99.90;;;;;;5029768;28;20706;-63
2022/12/20 11:29:20;;;;;;;5.22;4.65;;;11.20;99.90;;;;;;5027698;28;20247;-64
2022/12/20 11:32:09;;;;;;;4.35;3.95;;;11.30;99.90;;;;;;5023550;28;20184;-63
2022/12/20 11:34:48;;;;;;;4.35;3.95;;;11.50;99.90;;;;;;5024554;28;20201;-63
2022/12/20 11:37:23;;;;;;;4.88;3.53;;;11.90;99.90;;;;;;5035246;28;20307;-65
2022/12/20 11:39:48;;;;;;;6.75;5.97;;;11.70;99.90;;;;;;5024528;28;20185;-63
2022/12/20 11:42:24;;;;;;;5.20;3.03;;;11.70;99.30;;;;;;5029065;28;20554;-62
2022/12/20 11:45:15;;;;;;;5.60;3.75;;;11.80;98.50;;;;;;5028868;28;20181;-64
2022/12/20 11:48:05;;;;;;;7.80;5.65;;;11.90;98.90;;;;;;5026644;28;20190;-64
2022/12/20 11:51:06;;;;;;;7.82;6.00;;;11.90;99.40;;;;;;5025807;28;20678;-64
2022/12/20 11:54:03;;;;;;;5.00;4.50;;;12.10;99.30;;;;;;5026093;28;20195;-64
2022/12/20 11:56:34;;;;;;;4.15;3.60;;;12.10;98.60;;;;;;5029210;28;20221;-66
2022/12/20 11:59:25;;;;;;;7.68;6.00;;;12.00;98.30;;;;;;5030766;28;20265;-63
2022/12/20 12:02:09;;;;;;;3.97;3.58;;;12.20;99.10;;;;;;5030054;28;20185;-65
2022/12/20 12:04:45;;;;;;;3.40;3.10;;;12.10;98.50;;;;;;5023228;28;20193;-63
2022/12/20 12:07:18;;;;;;;3.75;3.45;;;12.00;98.10;;;;;;5040581;28;20201;-63
2022/12/20 12:09:43;;;;;;;4.78;4.07;;;11.80;98.10;;;;;;5028630;28;20212;-63
2022/12/20 12:12:12;;;;;;;5.27;4.37;;;11.70;98.30;;;;;;5026207;28;20724;-63
2022/12/20 12:15:11;;;;;;;4.03;3.63;;;11.80;98.30;;;;;;5027282;28;20277;-65
2022/12/20 12:17:46;;;;;;;6.50;5.63;;;11.70;98.10;;;;;;5025377;28;20472;-64
2022/12/20 12:20:47;;;;;;;5.70;5.10;;;11.90;98.30;;;;;;5032031;28;20554;-64
2022/12/20 12:23:23;;;;;;;4.50;3.20;;;11.50;98.10;;;;;;5009841;28;20185;-64
2022/12/20 12:25:49;;;;;;;6.30;4.70;;;11.90;98.30;;;;;;5029347;28;20235;-65
2022/12/20 12:28:16;;;;;;;4.27;3.63;;;11.70;98.20;;;;;;5027958;28;20184;-63
2022/12/20 12:30:48;;;;;;;4.40;3.90;;;11.60;98.20;;;;;;5028038;28;20449;-64
2022/12/20 12:33:18;;;;;;;4.50;4.10;;;11.90;98.50;;;;;;5027032;28;20267;-63
2022/12/20 12:35:44;;;;;;;4.40;3.70;;;11.70;98.60;;;;;;5029607;28;20213;-64
2022/12/20 12:38:24;;;;;;;4.37;3.83;;;11.80;98.60;;;;;;5019465;28;20279;-64
2022/12/20 12:41:20;;;;;;;4.65;4.20;;;11.90;98.60;;;;;;5026266;28;20230;-64
2022/12/20 12:43:49;;;;;;;5.97;3.88;;;11.90;98.70;;;;;;5029434;28;20662;-64
2022/12/20 12:46:21;;;;;;;7.45;4.45;;;11.80;98.80;;;;;;5025012;28;20218;-64
2022/12/20 12:48:54;;;;;;;5.95;4.78;;;11.90;99.00;;;;;;5029012;28;20201;-64
2022/12/20 12:51:28;;;;;;;4.80;3.90;;;11.70;99.10;;;;;;5017975;28;20269;-63
2022/12/20 12:54:03;;;;;;;8.10;4.90;;;11.60;99.20;;;;;;5024506;28;20286;-64
2022/12/20 12:56:33;;;;;;;6.72;4.45;;;11.50;99.20;;;;;;5028887;28;20214;-64
2022/12/20 12:59:05;;;;;;;5.18;3.80;;;11.60;99.20;;;;;;5028261;28;20208;-63
2022/12/20 13:01:54;;;;;;;6.07;4.32;;;11.60;99.20;;;;;;5028676;28;20206;-64
2022/12/20 13:04:22;;;;;;;5.95;4.90;;;11.80;99.20;;;;;;5020171;28;20671;-64
2022/12/20 13:06:47;;;;;;;4.53;4.10;;;12.00;99.50;;;;;;5028624;28;20639;-64
2022/12/20 13:09:25;;;;;;;5.60;4.73;;;11.80;99.20;;;;;;5022520;28;20187;-63
2022/12/20 13:11:56;;;;;;;5.00;4.50;;;11.70;99.10;;;;;;5029165;28;20186;-63
2022/12/20 13:14:24;;;;;;;5.57;4.35;;;11.90;99.20;;;;;;5027988;28;20643;-65